Time;durP1;ratioP1;P1;durP2;ratioP2;P2;SDS_P1;SDS_P2;PMS_P1;PMS_P2;Temp;Humidity;BMP_temperature;BMP_pressure;BME280_temperature;BME280_humidity;BME280_pressure;Samples;Min_cycle;Max_cycle;Signal;HPM_P1;HPM_P2
2021/12/26 00:00:54;;;;;;;10.10;6.05;;;13.10;96.70;;;;;;5114340;27;20043;-76
2021/12/26 00:03:27;;;;;;;10.35;6.05;;;13.10;96.70;;;;;;5111808;27;20045;-76
2021/12/26 00:05:57;;;;;;;8.80;5.68;;;13.10;96.70;;;;;;5115654;27;20120;-76
2021/12/26 00:08:25;;;;;;;7.50;5.22;;;13.10;96.70;;;;;;5118483;27;20041;-75
2021/12/26 00:10:54;;;;;;;8.32;4.55;;;13.00;96.70;;;;;;5113738;27;20047;-76
2021/12/26 00:13:23;;;;;;;15.60;10.93;;;13.00;96.70;;;;;;5111507;27;20143;-77
2021/12/26 00:15:51;;;;;;;20.80;9.50;;;13.00;96.70;;;;;;5112399;27;20039;-76
2021/12/26 00:18:19;;;;;;;11.20;5.85;;;13.00;96.70;;;;;;5116307;27;20093;-76
2021/12/26 00:20:49;;;;;;;11.23;5.72;;;13.00;96.70;;;;;;5112606;27;20067;-76
2021/12/26 00:23:17;;;;;;;13.88;7.80;;;13.00;96.70;;;;;;5117307;27;20073;-76
2021/12/26 00:25:46;;;;;;;9.13;5.53;;;12.90;96.70;;;;;;5114488;27;20043;-76
2021/12/26 00:28:15;;;;;;;8.55;4.10;;;12.90;96.70;;;;;;5113000;27;20059;-76
2021/12/26 00:30:46;;;;;;;9.57;3.75;;;12.90;96.70;;;;;;5114996;27;20146;-76
2021/12/26 00:33:14;;;;;;;6.65;4.45;;;12.90;96.70;;;;;;5103071;27;20043;-76
2021/12/26 00:35:43;;;;;;;8.82;5.03;;;13.00;96.70;;;;;;5114582;27;20110;-76
2021/12/26 00:38:13;;;;;;;8.20;4.30;;;13.00;96.70;;;;;;5100814;27;20438;-76
2021/12/26 00:40:41;;;;;;;10.55;4.18;;;13.00;96.70;;;;;;5118177;27;20042;-77
2021/12/26 00:43:10;;;;;;;11.32;6.43;;;13.00;96.70;;;;;;5119704;27;20592;-77
2021/12/26 00:45:40;;;;;;;9.13;4.70;;;13.00;96.70;;;;;;5110748;27;20127;-77
2021/12/26 00:48:09;;;;;;;7.68;4.57;;;12.90;96.70;;;;;;5116945;27;20035;-77
2021/12/26 00:50:41;;;;;;;6.50;4.22;;;13.00;96.70;;;;;;5114695;27;20100;-78
2021/12/26 00:53:10;;;;;;;9.35;4.68;;;13.00;96.70;;;;;;5115935;27;20176;-78
2021/12/26 00:55:40;;;;;;;8.73;4.45;;;13.00;96.70;;;;;;5112596;27;20073;-78
2021/12/26 00:58:09;;;;;;;7.43;4.32;;;13.00;96.70;;;;;;5116035;27;20073;-78
2021/12/26 01:00:42;;;;;;;6.50;4.10;;;12.90;96.70;;;;;;5116935;27;20458;-78
2021/12/26 01:03:12;;;;;;;8.27;4.00;;;12.90;96.70;;;;;;5115216;27;20421;-78
2021/12/26 01:05:44;;;;;;;7.18;4.30;;;12.90;96.70;;;;;;5113726;27;20130;-78
2021/12/26 01:08:15;;;;;;;8.43;4.28;;;12.90;96.70;;;;;;5118819;27;20092;-78
2021/12/26 01:10:51;;;;;;;8.90;4.95;;;12.90;96.70;;;;;;5119516;27;20043;-79
2021/12/26 01:16:05;;;;;;;5.68;4.55;;;12.90;96.70;;;;;;5113666;27;20043;-78
2021/12/26 01:18:40;;;;;;;7.53;4.47;;;12.90;96.70;;;;;;5116877;27;20044;-78
2021/12/26 01:21:19;;;;;;;4.47;4.05;;;12.90;96.70;;;;;;5091355;27;20050;-77
2021/12/26 01:23:59;;;;;;;7.97;4.15;;;12.90;96.70;;;;;;5102113;27;20556;-78
2021/12/26 01:26:29;;;;;;;6.72;4.35;;;12.90;96.70;;;;;;5115293;27;20047;-78
2021/12/26 01:28:57;;;;;;;7.40;4.75;;;13.00;96.70;;;;;;5104164;27;20043;-78
2021/12/26 01:31:27;;;;;;;6.40;4.35;;;13.00;96.70;;;;;;5109586;27;20050;-78
2021/12/26 01:34:05;;;;;;;6.05;3.90;;;13.00;96.70;;;;;;5111205;27;20626;-78
2021/12/26 01:36:51;;;;;;;4.88;3.40;;;13.00;96.70;;;;;;5113320;27;20044;-78
2021/12/26 01:39:46;;;;;;;6.03;3.38;;;13.00;96.70;;;;;;5115842;27;20047;-78
2021/12/26 01:42:20;;;;;;;5.05;2.97;;;13.00;96.70;;;;;;5111629;27;20396;-78
2021/12/26 01:45:07;;;;;;;6.88;3.38;;;13.00;96.70;;;;;;5097136;27;20132;-78
2021/12/26 01:47:46;;;;;;;5.00;2.70;;;13.00;96.70;;;;;;5114493;27;20071;-78
2021/12/26 01:50:14;;;;;;;6.20;3.15;;;13.00;96.70;;;;;;5114295;27;20039;-78
2021/12/26 01:52:44;;;;;;;3.83;2.58;;;13.00;96.70;;;;;;5117678;27;20051;-77
2021/12/26 01:55:23;;;;;;;7.55;2.85;;;13.10;96.70;;;;;;5110850;27;20358;-77
2021/12/26 01:57:57;;;;;;;3.95;2.45;;;13.10;96.70;;;;;;5112713;27;20593;-78
2021/12/26 02:00:26;;;;;;;5.72;2.67;;;13.10;96.70;;;;;;5107337;27;20051;-78
2021/12/26 02:02:54;;;;;;;7.72;2.55;;;13.10;96.70;;;;;;5117456;27;20035;-77
2021/12/26 02:05:22;;;;;;;4.78;2.30;;;13.10;96.70;;;;;;5113454;27;20103;-77
2021/12/26 02:07:55;;;;;;;4.30;2.53;;;13.10;96.70;;;;;;5110479;27;20047;-77
2021/12/26 02:10:24;;;;;;;8.07;2.88;;;13.10;96.70;;;;;;5095525;27;20137;-78
2021/12/26 02:12:53;;;;;;;4.35;2.60;;;13.10;96.70;;;;;;5101932;27;20175;-78
2021/12/26 02:15:22;;;;;;;4.28;2.75;;;13.10;96.70;;;;;;5111796;27;20051;-77
2021/12/26 02:18:00;;;;;;;5.60;3.42;;;13.10;96.70;;;;;;5112283;27;20190;-78
2021/12/26 02:21:26;;;;;;;5.47;2.97;;;13.10;96.70;;;;;;5114287;27;20042;-78
2021/12/26 02:23:49;;;;;;;4.63;2.67;;;13.10;96.70;;;;;;5100341;27;20073;-78
2021/12/26 02:28:46;;;;;;;5.22;3.00;;;13.00;96.70;;;;;;5111565;27;20126;-76
2021/12/26 02:31:16;;;;;;;4.95;3.10;;;13.00;96.70;;;;;;5097341;27;20077;-78
2021/12/26 02:33:45;;;;;;;4.43;2.85;;;13.00;96.70;;;;;;5110736;27;20107;-77
2021/12/26 02:36:14;;;;;;;6.05;2.97;;;13.00;96.70;;;;;;5113876;27;20051;-77
2021/12/26 02:38:43;;;;;;;4.97;3.13;;;13.00;96.70;;;;;;5111066;27;20047;-78
2021/12/26 02:41:12;;;;;;;7.32;3.17;;;13.00;96.70;;;;;;5110167;27;20039;-77
2021/12/26 02:43:40;;;;;;;4.05;2.97;;;12.90;96.70;;;;;;5096105;27;20049;-77
2021/12/26 02:46:08;;;;;;;4.38;2.90;;;12.90;96.70;;;;;;5107865;27;20458;-77
2021/12/26 02:48:41;;;;;;;5.40;3.20;;;12.90;96.70;;;;;;5111672;27;20036;-77
2021/12/26 02:51:11;;;;;;;5.05;3.22;;;12.90;96.70;;;;;;5112685;28;20047;-77
2021/12/26 02:53:41;;;;;;;6.00;3.15;;;12.90;96.70;;;;;;5107911;28;20449;-78
2021/12/26 02:56:10;;;;;;;4.72;2.72;;;13.00;96.70;;;;;;5115868;28;20392;-78
2021/12/26 02:58:38;;;;;;;4.55;3.05;;;13.00;96.70;;;;;;5109118;28;20126;-77
2021/12/26 03:01:09;;;;;;;5.93;3.55;;;13.00;96.70;;;;;;5108608;28;20048;-77
2021/12/26 03:03:38;;;;;;;5.10;2.80;;;13.00;96.70;;;;;;5111917;28;20395;-77
2021/12/26 03:06:17;;;;;;;3.70;2.53;;;13.00;96.70;;;;;;5108990;28;20059;-77
2021/12/26 03:08:48;;;;;;;5.60;3.20;;;13.00;96.70;;;;;;5113303;28;20140;-77
2021/12/26 03:11:16;;;;;;;7.63;3.70;;;12.90;96.70;;;;;;5109410;28;20079;-77
2021/12/26 03:13:44;;;;;;;5.32;3.25;;;12.90;96.70;;;;;;5110857;28;20043;-77
2021/12/26 03:16:13;;;;;;;5.55;3.10;;;12.90;96.70;;;;;;5108777;28;20123;-77
2021/12/26 03:18:42;;;;;;;3.97;2.92;;;12.90;96.70;;;;;;5112555;28;20103;-77
2021/12/26 03:21:11;;;;;;;6.68;3.00;;;12.90;96.70;;;;;;5111393;28;20028;-77
2021/12/26 03:23:39;;;;;;;6.78;3.38;;;12.90;96.70;;;;;;5095169;28;20046;-77
2021/12/26 03:26:09;;;;;;;6.97;3.15;;;12.90;96.70;;;;;;5105121;28;20827;-77
2021/12/26 03:28:37;;;;;;;3.60;3.10;;;12.90;96.70;;;;;;5093464;28;20408;-77
2021/12/26 03:31:06;;;;;;;7.45;3.10;;;12.90;96.70;;;;;;5109308;28;20110;-77
2021/12/26 03:33:37;;;;;;;5.93;2.63;;;12.90;96.70;;;;;;5117843;28;20504;-78
2021/12/26 03:36:07;;;;;;;3.70;2.63;;;12.90;96.70;;;;;;5104190;27;20907;-77
2021/12/26 03:38:36;;;;;;;7.80;3.10;;;12.90;96.70;;;;;;5113001;28;20043;-77
2021/12/26 03:41:23;;;;;;;5.78;3.00;;;12.90;96.70;;;;;;5111705;28;20063;-77
2021/12/26 03:43:58;;;;;;;;;;;12.90;96.70;;;;;;5110148;28;20032;-77
2021/12/26 03:46:27;;;;;;;7.40;3.45;;;12.80;96.70;;;;;;5111009;28;20357;-77
2021/12/26 03:48:59;;;;;;;5.68;3.45;;;12.80;96.70;;;;;;5093368;28;20142;-77
2021/12/26 03:51:27;;;;;;;5.55;4.00;;;12.80;96.70;;;;;;5110496;28;20063;-77
2021/12/26 03:53:56;;;;;;;6.00;3.92;;;12.80;96.70;;;;;;5111141;28;20515;-77
2021/12/26 03:56:27;;;;;;;6.00;3.92;;;12.80;96.70;;;;;;5111233;28;20434;-77
2021/12/26 03:59:16;;;;;;;8.75;4.63;;;12.80;96.70;;;;;;5105738;28;20111;-77
2021/12/26 04:01:44;;;;;;;6.25;4.00;;;12.80;96.70;;;;;;5111392;27;20047;-77
2021/12/26 04:04:13;;;;;;;6.35;3.90;;;12.80;96.70;;;;;;5108130;28;20436;-77
2021/12/26 04:06:42;;;;;;;7.90;3.80;;;12.70;96.70;;;;;;5112614;27;20039;-77
2021/12/26 04:09:11;;;;;;;7.25;4.00;;;12.70;96.70;;;;;;5119086;27;20035;-77
2021/12/26 04:11:43;;;;;;;5.82;3.38;;;12.70;96.70;;;;;;5115100;27;20570;-77
2021/12/26 04:14:12;;;;;;;4.72;3.85;;;12.70;96.70;;;;;;5114720;27;20051;-76
2021/12/26 04:16:41;;;;;;;6.68;3.50;;;12.70;96.70;;;;;;5100832;27;20049;-77
2021/12/26 04:19:10;;;;;;;6.32;3.83;;;12.70;96.70;;;;;;5110944;27;20062;-77
2021/12/26 04:21:39;;;;;;;5.90;3.88;;;12.70;96.70;;;;;;5093963;27;20118;-77
2021/12/26 04:24:14;;;;;;;5.40;3.65;;;12.70;96.70;;;;;;5114572;27;20071;-77
2021/12/26 04:26:48;;;;;;;6.63;3.65;;;12.70;96.70;;;;;;5113042;27;20504;-75
2021/12/26 04:29:17;;;;;;;6.97;3.50;;;12.60;96.70;;;;;;5116519;27;20035;-75
2021/12/26 04:31:46;;;;;;;4.72;3.58;;;12.50;96.70;;;;;;5117373;27;20130;-75
2021/12/26 04:34:14;;;;;;;5.35;3.38;;;12.50;96.70;;;;;;5095774;27;20147;-76
2021/12/26 04:36:44;;;;;;;4.95;3.78;;;12.50;96.70;;;;;;5112990;27;20131;-76
2021/12/26 04:39:14;;;;;;;6.47;3.72;;;12.50;96.70;;;;;;5117280;27;20165;-75
2021/12/26 04:41:45;;;;;;;5.60;3.55;;;12.50;96.70;;;;;;5114733;27;20077;-76
2021/12/26 04:44:33;;;;;;;6.18;3.42;;;12.50;96.70;;;;;;5113407;27;20112;-75
2021/12/26 04:47:20;;;;;;;4.82;3.67;;;12.50;96.70;;;;;;5113731;27;20070;-76
2021/12/26 04:49:49;;;;;;;4.93;3.42;;;12.50;96.70;;;;;;5100789;27;20141;-76
2021/12/26 04:52:18;;;;;;;4.97;3.55;;;12.60;96.70;;;;;;5095573;27;20458;-76
2021/12/26 04:54:46;;;;;;;4.68;3.50;;;12.60;96.70;;;;;;5115358;27;20439;-76
2021/12/26 04:57:15;;;;;;;5.50;3.78;;;12.50;96.70;;;;;;5111507;27;20036;-76
2021/12/26 04:59:45;;;;;;;6.68;4.35;;;12.50;96.70;;;;;;5120114;27;20043;-76
2021/12/26 05:02:13;;;;;;;6.38;3.60;;;12.50;96.70;;;;;;5111173;27;20045;-76
2021/12/26 05:04:42;;;;;;;5.90;4.00;;;12.50;96.70;;;;;;5116556;27;20047;-76
2021/12/26 05:07:10;;;;;;;4.85;3.60;;;12.50;96.70;;;;;;5108600;27;20623;-75
2021/12/26 05:09:38;;;;;;;4.60;3.85;;;12.50;96.70;;;;;;5120452;27;20054;-76
2021/12/26 05:12:09;;;;;;;6.10;3.55;;;12.60;96.70;;;;;;5100669;27;20401;-76
2021/12/26 05:14:37;;;;;;;4.70;3.25;;;12.60;96.70;;;;;;5118110;27;20437;-76
2021/12/26 05:17:07;;;;;;;4.63;3.40;;;12.60;96.70;;;;;;5115137;27;20027;-76
2021/12/26 05:19:36;;;;;;;4.43;3.35;;;12.60;96.70;;;;;;5111082;27;20504;-76
2021/12/26 05:22:06;;;;;;;5.93;3.45;;;12.60;96.70;;;;;;5113829;27;20069;-76
2021/12/26 05:24:34;;;;;;;5.65;3.05;;;12.70;96.70;;;;;;5110328;27;20047;-76
2021/12/26 05:27:03;;;;;;;5.05;3.28;;;12.60;96.70;;;;;;5116213;27;20484;-75
2021/12/26 05:29:32;;;;;;;4.78;3.45;;;12.70;96.70;;;;;;5114050;27;20058;-76
2021/12/26 05:32:00;;;;;;;4.72;3.40;;;12.60;96.70;;;;;;5126371;27;20507;-76
2021/12/26 05:34:30;;;;;;;6.05;3.45;;;12.60;96.70;;;;;;5116136;27;20988;-76
2021/12/26 05:36:59;;;;;;;3.58;2.92;;;12.60;96.70;;;;;;5111264;27;20166;-76
2021/12/26 05:39:27;;;;;;;4.32;2.85;;;12.60;96.70;;;;;;5099910;27;20150;-76
2021/12/26 05:41:56;;;;;;;5.60;3.13;;;12.70;96.70;;;;;;5113796;27;20048;-77
2021/12/26 05:44:30;;;;;;;3.92;2.58;;;12.70;96.70;;;;;;5119893;27;20046;-75
2021/12/26 05:47:01;;;;;;;3.33;2.60;;;12.70;96.70;;;;;;5112398;27;20528;-75
2021/12/26 05:49:47;;;;;;;4.47;2.80;;;12.70;96.70;;;;;;5110760;27;20043;-77
2021/12/26 05:52:20;;;;;;;3.47;2.40;;;12.70;96.70;;;;;;5111848;27;20054;-77
2021/12/26 05:55:06;;;;;;;4.07;2.72;;;12.70;96.70;;;;;;5120827;27;20046;-77
2021/12/26 05:57:35;;;;;;;10.45;3.00;;;12.70;96.70;;;;;;5111752;27;20474;-76
2021/12/26 06:00:05;;;;;;;5.38;2.90;;;12.80;96.70;;;;;;5093487;27;20063;-76
2021/12/26 06:02:42;;;;;;;4.68;1.95;;;12.80;96.70;;;;;;5113610;27;20047;-77
2021/12/26 06:05:13;;;;;;;3.05;1.90;;;12.80;96.70;;;;;;5113364;27;20613;-76
2021/12/26 06:07:42;;;;;;;4.93;2.40;;;12.80;96.70;;;;;;5110910;27;20036;-76
2021/12/26 06:10:12;;;;;;;7.40;2.50;;;12.80;96.70;;;;;;5113243;27;20047;-76
2021/12/26 06:12:41;;;;;;;2.78;1.80;;;12.80;96.70;;;;;;5111628;27;20047;-75
2021/12/26 06:15:09;;;;;;;4.03;1.90;;;12.80;96.70;;;;;;5099993;27;20049;-76
2021/12/26 06:17:38;;;;;;;3.58;1.92;;;12.90;96.70;;;;;;5095241;28;20457;-75
2021/12/26 06:20:27;;;;;;;3.38;1.75;;;12.80;96.70;;;;;;5108845;27;20051;-77
2021/12/26 06:23:14;;;;;;;2.78;1.90;;;12.90;96.70;;;;;;5109515;27;20092;-77
2021/12/26 06:26:12;;;;;;;3.40;1.58;;;12.90;96.70;;;;;;5112129;27;20571;-77
2021/12/26 06:28:42;;;;;;;2.88;1.38;;;12.90;96.70;;;;;;5109968;27;20047;-78
2021/12/26 06:31:33;;;;;;;2.35;1.40;;;12.90;96.70;;;;;;5109770;27;20051;-77
2021/12/26 06:34:34;;;;;;;3.05;1.35;;;12.90;96.70;;;;;;5090210;27;20046;-77
2021/12/26 06:37:22;;;;;;;4.20;1.85;;;12.90;96.70;;;;;;5112405;27;20491;-77
2021/12/26 06:40:23;;;;;;;6.10;1.88;;;12.90;96.70;;;;;;5097919;28;20047;-77
2021/12/26 06:43:11;;;;;;;3.25;1.45;;;12.90;96.70;;;;;;5091904;28;20055;-77
2021/12/26 06:45:58;;;;;;;;;;;12.90;96.70;;;;;;5110532;27;20050;-77
2021/12/26 06:48:29;;;;;;;2.90;1.70;;;12.90;96.70;;;;;;5111253;27;19928;-77
2021/12/26 06:50:58;;;;;;;1.75;1.20;;;12.90;96.70;;;;;;5114920;27;20039;-77
2021/12/26 06:53:28;;;;;;;2.55;1.30;;;12.90;96.70;;;;;;5104416;28;20558;-77
2021/12/26 06:55:56;;;;;;;2.85;1.00;;;12.90;96.70;;;;;;5110504;28;20043;-77
2021/12/26 06:58:25;;;;;;;2.15;0.82;;;12.90;96.70;;;;;;5109934;27;20039;-77
2021/12/26 07:00:53;;;;;;;5.47;1.13;;;12.90;96.70;;;;;;5107985;28;20489;-77
2021/12/26 07:03:22;;;;;;;2.97;1.10;;;12.90;96.70;;;;;;5113128;28;20147;-77
2021/12/26 07:05:50;;;;;;;2.10;0.90;;;12.80;96.70;;;;;;5105762;28;20366;-77
2021/12/26 07:08:23;;;;;;;2.70;0.80;;;12.80;96.70;;;;;;5110939;28;20092;-77
2021/12/26 07:10:57;;;;;;;3.17;0.73;;;12.80;96.70;;;;;;5108913;28;20036;-77
2021/12/26 07:13:27;;;;;;;2.72;1.08;;;12.80;96.70;;;;;;5109076;28;20201;-77
2021/12/26 07:15:55;;;;;;;2.42;1.38;;;12.90;96.70;;;;;;5097617;28;20051;-77
2021/12/26 07:18:24;;;;;;;2.35;1.40;;;12.90;96.70;;;;;;5107650;28;20039;-77
2021/12/26 07:20:53;;;;;;;2.65;1.60;;;12.80;96.70;;;;;;5111160;28;20067;-77
2021/12/26 07:23:45;;;;;;;2.38;1.70;;;12.80;96.70;;;;;;5113331;28;20065;-77
2021/12/26 07:26:18;;;;;;;2.55;1.30;;;12.80;96.70;;;;;;5108316;28;20043;-77
2021/12/26 07:28:47;;;;;;;3.25;1.60;;;12.80;96.70;;;;;;5110078;28;20031;-77
2021/12/26 07:31:22;;;;;;;3.90;2.20;;;12.80;96.70;;;;;;5108364;28;20126;-77
2021/12/26 07:33:56;;;;;;;2.35;1.70;;;12.80;96.70;;;;;;5092187;28;20047;-77
2021/12/26 07:36:27;;;;;;;3.03;1.67;;;12.80;96.70;;;;;;5110028;28;20089;-77
2021/12/26 07:39:01;;;;;;;3.50;2.40;;;12.80;96.70;;;;;;5110582;28;20502;-77
2021/12/26 07:41:32;;;;;;;3.42;2.70;;;12.80;96.70;;;;;;5112703;27;20075;-77
2021/12/26 07:44:01;;;;;;;3.03;1.90;;;12.80;96.70;;;;;;5111518;27;20043;-77
2021/12/26 07:46:49;;;;;;;4.22;1.75;;;12.80;96.70;;;;;;5115900;27;20055;-77
2021/12/26 07:49:20;;;;;;;2.95;1.75;;;12.80;96.70;;;;;;5111773;27;20032;-77
2021/12/26 07:52:22;;;;;;;3.63;2.40;;;12.80;96.70;;;;;;5115930;27;20339;-77
2021/12/26 07:55:12;;;;;;;3.47;1.80;;;12.80;96.70;;;;;;5113477;27;20050;-77
2021/12/26 07:58:13;;;;;;;4.00;1.75;;;12.80;96.70;;;;;;5101637;27;20582;-77
2021/12/26 08:01:08;;;;;;;;;;;12.80;96.70;;;;;;5095647;27;20066;-76
2021/12/26 08:03:49;;;;;;;2.58;1.25;;;12.70;96.70;;;;;;5115537;27;19927;-76
2021/12/26 08:06:44;;;;;;;4.35;1.80;;;12.70;96.70;;;;;;5077291;28;20041;-76
2021/12/26 08:09:12;;;;;;;2.45;1.10;;;12.70;96.70;;;;;;5057617;28;20459;-76
2021/12/26 08:11:41;;;;;;;2.88;1.20;;;12.70;96.70;;;;;;5077099;28;20040;-77
2021/12/26 08:14:11;;;;;;;2.33;0.90;;;12.70;96.70;;;;;;5074916;28;20056;-76
2021/12/26 08:16:40;;;;;;;1.80;1.10;;;12.70;96.70;;;;;;5068753;28;20048;-76
2021/12/26 08:19:08;;;;;;;4.53;2.80;;;12.70;96.70;;;;;;5079724;28;20052;-76
2021/12/26 08:21:37;;;;;;;7.03;3.60;;;12.70;96.70;;;;;;5078551;28;20520;-76
2021/12/26 08:24:05;;;;;;;3.33;1.80;;;12.70;96.70;;;;;;5077525;28;20505;-76
2021/12/26 08:26:36;;;;;;;2.60;1.70;;;12.70;96.70;;;;;;5053492;28;20056;-76
2021/12/26 08:29:04;;;;;;;2.05;1.30;;;12.70;96.70;;;;;;5081092;28;20040;-75
2021/12/26 08:31:34;;;;;;;2.10;1.00;;;12.80;96.70;;;;;;5075495;28;20043;-76
2021/12/26 08:34:04;;;;;;;2.25;1.40;;;12.80;96.70;;;;;;5078996;28;20044;-76
2021/12/26 08:36:32;;;;;;;2.17;1.10;;;12.80;96.70;;;;;;5080084;28;20208;-75
2021/12/26 08:39:03;;;;;;;4.55;3.30;;;12.80;96.70;;;;;;5079212;28;20048;-76
2021/12/26 08:41:31;;;;;;;2.67;2.10;;;12.70;96.70;;;;;;5078852;28;20130;-76
2021/12/26 08:43:59;;;;;;;2.45;2.10;;;12.80;96.70;;;;;;5100150;27;20070;-76
2021/12/26 08:46:27;;;;;;;1.73;1.50;;;12.70;96.70;;;;;;5118800;27;20043;-76
2021/12/26 08:48:57;;;;;;;0.98;0.80;;;12.70;96.70;;;;;;5118846;27;20412;-76
2021/12/26 08:51:25;;;;;;;1.10;0.77;;;12.60;96.70;;;;;;5116173;27;20488;-75
2021/12/26 08:53:54;;;;;;;1.65;0.63;;;12.60;96.70;;;;;;5093872;27;20046;-76
2021/12/26 08:56:22;;;;;;;2.20;0.88;;;12.60;96.70;;;;;;5112780;27;20406;-75
2021/12/26 08:58:50;;;;;;;1.13;0.50;;;12.60;96.70;;;;;;5118424;27;20147;-76
2021/12/26 09:01:18;;;;;;;1.00;0.45;;;12.60;96.70;;;;;;5119595;27;20047;-74
2021/12/26 09:03:47;;;;;;;1.05;0.63;;;12.60;96.70;;;;;;5113378;27;20150;-75
2021/12/26 09:06:17;;;;;;;1.70;0.93;;;12.60;96.70;;;;;;5115079;27;20027;-74
2021/12/26 09:08:45;;;;;;;3.28;2.42;;;12.70;96.70;;;;;;5119134;27;20046;-74
2021/12/26 09:11:15;;;;;;;4.97;3.00;;;12.70;96.70;;;;;;5115293;27;20071;-75
2021/12/26 09:13:44;;;;;;;4.22;2.53;;;12.70;96.70;;;;;;5097168;27;20411;-76
2021/12/26 09:16:13;;;;;;;3.45;2.63;;;12.70;96.70;;;;;;5118398;27;20500;-75
2021/12/26 09:18:42;;;;;;;3.80;2.42;;;12.70;96.70;;;;;;5119475;27;20279;-74
2021/12/26 09:21:10;;;;;;;3.05;2.70;;;12.70;96.70;;;;;;5111032;27;20039;-75
2021/12/26 09:23:40;;;;;;;7.32;4.18;;;12.70;96.70;;;;;;5111931;27;21066;-75
2021/12/26 09:26:08;;;;;;;3.33;1.83;;;12.70;96.70;;;;;;5110685;27;20043;-75
2021/12/26 09:28:38;;;;;;;1.77;1.52;;;12.70;96.70;;;;;;5116736;27;20484;-76
2021/12/26 09:31:06;;;;;;;2.17;1.90;;;12.70;96.70;;;;;;5108705;27;20501;-74
2021/12/26 09:33:35;;;;;;;3.85;2.30;;;12.70;96.70;;;;;;5112498;27;20053;-75
2021/12/26 09:36:03;;;;;;;4.65;2.92;;;12.70;96.70;;;;;;5109516;27;20153;-75
2021/12/26 09:38:31;;;;;;;8.63;5.28;;;12.80;96.70;;;;;;5145664;27;20047;-75
2021/12/26 09:41:03;;;;;;;3.63;2.22;;;12.70;96.70;;;;;;5112128;27;20043;-75
2021/12/26 09:43:32;;;;;;;3.15;2.10;;;12.70;96.70;;;;;;5108878;27;20187;-74
2021/12/26 09:46:01;;;;;;;3.45;2.28;;;12.70;96.70;;;;;;5112713;27;20119;-75
2021/12/26 09:48:29;;;;;;;4.25;2.80;;;12.70;96.70;;;;;;5113987;27;20116;-75
2021/12/26 09:50:58;;;;;;;3.20;2.38;;;12.70;96.70;;;;;;5112070;27;20036;-74
2021/12/26 09:53:26;;;;;;;2.90;2.10;;;12.80;96.70;;;;;;5112079;27;20043;-73
2021/12/26 09:55:54;;;;;;;4.20;2.83;;;12.80;96.70;;;;;;5089446;27;20038;-75
2021/12/26 09:58:24;;;;;;;5.82;3.10;;;12.80;96.70;;;;;;5116656;27;20051;-76
2021/12/26 10:00:52;;;;;;;5.32;2.70;;;12.80;96.70;;;;;;5116037;27;20043;-78
2021/12/26 10:03:23;;;;;;;4.47;3.28;;;12.90;96.70;;;;;;5109082;27;20071;-77
2021/12/26 10:06:00;;;;;;;3.97;2.60;;;12.90;96.70;;;;;;5112111;27;20241;-77
2021/12/26 10:08:29;;;;;;;4.20;2.40;;;13.00;96.70;;;;;;5109468;27;20096;-75
2021/12/26 10:11:09;;;;;;;2.55;1.77;;;13.00;96.70;;;;;;5098744;27;20050;-75
2021/12/26 10:13:44;;;;;;;1.80;1.40;;;13.00;96.70;;;;;;5111106;27;20043;-75
2021/12/26 10:16:14;;;;;;;1.50;1.40;;;13.00;96.70;;;;;;5112082;27;20514;-75
2021/12/26 10:18:44;;;;;;;3.45;1.60;;;13.00;96.70;;;;;;5107849;27;20139;-76
2021/12/26 10:21:44;;;;;;;1.95;1.67;;;13.10;96.70;;;;;;5115890;27;20107;-76
2021/12/26 10:24:16;;;;;;;4.47;2.45;;;13.00;96.70;;;;;;5105870;27;20051;-76
2021/12/26 10:26:47;;;;;;;2.83;2.08;;;13.00;96.70;;;;;;5113632;27;20376;-76
2021/12/26 10:29:24;;;;;;;3.67;2.38;;;13.00;96.70;;;;;;5108481;27;20042;-76
2021/12/26 10:32:01;;;;;;;4.32;2.55;;;13.00;96.70;;;;;;5117074;27;20043;-75
2021/12/26 10:34:32;;;;;;;5.00;3.45;;;13.10;96.70;;;;;;5112315;27;20546;-75
2021/12/26 10:37:03;;;;;;;4.82;2.60;;;13.10;96.70;;;;;;5109302;27;20071;-76
2021/12/26 10:39:33;;;;;;;5.38;2.97;;;13.10;96.70;;;;;;5112018;27;20133;-75
2021/12/26 10:42:04;;;;;;;3.08;1.77;;;13.10;96.70;;;;;;5106253;27;20142;-75
2021/12/26 10:44:38;;;;;;;3.20;1.95;;;13.10;96.70;;;;;;5114392;27;20122;-76
2021/12/26 10:47:08;;;;;;;2.42;1.70;;;13.10;96.70;;;;;;5109104;27;20043;-75
2021/12/26 10:49:45;;;;;;;2.85;1.50;;;13.10;96.70;;;;;;5112213;27;20084;-75
2021/12/26 10:52:14;;;;;;;;;;;13.10;96.70;;;;;;5108961;27;20035;-75
2021/12/26 10:54:44;;;;;;;4.35;3.75;;;13.10;96.70;;;;;;5116169;28;20015;-75
2021/12/26 10:57:19;;;;;;;4.15;2.70;;;13.10;96.70;;;;;;5082470;28;20043;-74
2021/12/26 11:00:13;;;;;;;4.50;3.35;;;13.10;96.70;;;;;;5065362;28;20046;-75
2021/12/26 11:02:43;;;;;;;7.55;5.20;;;13.10;96.70;;;;;;5066808;28;20397;-75
2021/12/26 11:05:14;;;;;;;5.28;4.30;;;13.10;96.70;;;;;;5089058;28;20050;-74
2021/12/26 11:07:48;;;;;;;4.43;3.50;;;12.90;96.70;;;;;;5102099;28;20645;-74
2021/12/26 11:10:23;;;;;;;3.58;2.15;;;12.90;96.70;;;;;;5097337;28;20515;-74
2021/12/26 11:12:53;;;;;;;4.05;2.50;;;12.80;96.70;;;;;;5078699;28;20142;-74
2021/12/26 11:15:25;;;;;;;3.70;2.67;;;12.80;96.70;;;;;;5058999;27;20528;-74
2021/12/26 11:17:56;;;;;;;10.63;6.60;;;12.80;96.70;;;;;;5063312;27;20382;-75
2021/12/26 11:20:33;;;;;;;11.05;7.70;;;12.80;96.70;;;;;;5083906;27;20423;-77
2021/12/26 11:23:09;;;;;;;6.15;4.97;;;12.80;96.70;;;;;;5077182;27;20142;-75
2021/12/26 11:25:40;;;;;;;;;;;12.80;96.70;;;;;;5105990;27;20070;-75
2021/12/26 11:28:09;;;;;;;8.15;5.85;;;12.80;96.70;;;;;;5141662;27;20393;-79
2021/12/26 11:30:39;;;;;;;8.43;5.60;;;12.80;96.70;;;;;;5113103;27;20063;-76
2021/12/26 11:33:08;;;;;;;10.45;6.65;;;12.80;96.70;;;;;;5110854;27;20454;-76
2021/12/26 11:35:37;;;;;;;6.10;4.55;;;12.80;96.70;;;;;;5111611;27;20043;-75
2021/12/26 11:38:09;;;;;;;6.60;4.65;;;12.80;96.70;;;;;;5112716;27;20127;-76
2021/12/26 11:40:59;;;;;;;6.35;4.18;;;12.90;96.70;;;;;;5115746;27;20095;-75
2021/12/26 11:44:09;;;;;;;5.55;4.40;;;12.90;96.70;;;;;;5118814;27;20294;-75
2021/12/26 11:47:16;;;;;;;5.22;4.18;;;12.90;96.70;;;;;;5125550;27;20074;-76
2021/12/26 11:50:19;;;;;;;5.05;3.90;;;12.90;96.70;;;;;;5114312;27;20050;-76
2021/12/26 11:53:35;;;;;;;6.47;5.40;;;12.90;96.70;;;;;;5111634;27;20046;-76
2021/12/26 11:56:17;;;;;;;7.20;5.45;;;12.80;96.70;;;;;;5094951;27;20047;-76
2021/12/26 11:59:07;;;;;;;6.65;5.75;;;12.80;96.70;;;;;;5114602;27;20040;-76
2021/12/26 12:01:42;;;;;;;9.00;7.03;;;12.90;96.70;;;;;;5094940;27;20538;-76
2021/12/26 12:04:15;;;;;;;7.50;5.78;;;12.90;96.70;;;;;;5099648;27;20040;-76
2021/12/26 12:06:46;;;;;;;29.63;16.98;;;13.00;96.70;;;;;;5113331;27;20043;-75
2021/12/26 12:09:25;;;;;;;10.18;7.70;;;13.00;96.70;;;;;;5112740;27;20397;-75
2021/12/26 12:12:04;;;;;;;8.75;6.43;;;12.90;96.70;;;;;;5112822;27;20048;-76
2021/12/26 12:14:53;;;;;;;7.38;5.15;;;13.00;96.70;;;;;;5116754;27;20043;-75
2021/12/26 12:17:24;;;;;;;6.43;4.70;;;13.10;96.70;;;;;;5116708;27;20035;-74
2021/12/26 12:20:16;;;;;;;8.63;5.93;;;13.00;96.70;;;;;;5095614;27;20050;-75
2021/12/26 12:23:17;;;;;;;14.88;12.15;;;13.00;96.70;;;;;;5111948;27;20070;-75
2021/12/26 12:25:52;;;;;;;9.82;7.00;;;13.00;96.70;;;;;;5118031;27;20046;-75
2021/12/26 12:28:26;;;;;;;7.35;6.45;;;13.20;96.70;;;;;;5118896;27;20040;-75
2021/12/26 12:30:58;;;;;;;6.22;5.63;;;13.30;96.70;;;;;;5113773;27;20154;-76
2021/12/26 12:33:28;;;;;;;5.57;4.93;;;13.40;96.70;;;;;;5115594;27;20043;-76
2021/12/26 12:36:02;;;;;;;7.10;6.40;;;13.50;96.70;;;;;;5111885;27;20039;-76
2021/12/26 12:38:34;;;;;;;6.65;5.55;;;13.60;96.70;;;;;;5119267;27;20040;-76
2021/12/26 12:41:38;;;;;;;6.20;4.50;;;13.60;96.70;;;;;;5108818;27;20048;-76
2021/12/26 12:44:24;;;;;;;6.47;5.10;;;13.60;96.70;;;;;;5113305;27;20043;-76
2021/12/26 12:46:54;;;;;;;5.88;5.28;;;13.60;96.70;;;;;;5101535;27;20054;-75
2021/12/26 12:49:45;;;;;;;5.57;4.93;;;13.70;96.70;;;;;;5111156;27;20043;-76
2021/12/26 12:52:40;;;;;;;5.93;4.60;;;13.70;96.70;;;;;;5110639;27;20054;-76
2021/12/26 12:55:11;;;;;;;4.20;3.70;;;13.70;96.70;;;;;;5115618;27;20120;-76
2021/12/26 12:57:42;;;;;;;4.50;3.65;;;13.60;96.70;;;;;;5100416;27;20043;-76
2021/12/26 13:00:41;;;;;;;4.38;3.63;;;13.60;96.70;;;;;;5114356;27;20051;-76
2021/12/26 13:03:20;;;;;;;4.78;4.22;;;13.60;96.70;;;;;;5110254;27;20035;-75
2021/12/26 13:05:50;;;;;;;6.07;4.15;;;13.60;96.70;;;;;;5117358;27;20047;-77
2021/12/26 13:08:21;;;;;;;4.75;3.58;;;13.50;96.70;;;;;;5111039;27;20112;-77
2021/12/26 13:10:53;;;;;;;3.92;3.28;;;13.50;96.70;;;;;;5109151;27;20047;-76
2021/12/26 13:13:22;;;;;;;3.80;3.33;;;13.50;96.70;;;;;;5115441;27;20071;-76
2021/12/26 13:15:55;;;;;;;5.00;3.90;;;13.50;96.70;;;;;;5120900;27;20035;-76
2021/12/26 13:18:27;;;;;;;4.55;3.30;;;13.60;96.70;;;;;;5119546;27;20031;-77
2021/12/26 13:20:57;;;;;;;3.88;3.10;;;13.50;96.70;;;;;;5116680;27;20054;-76
2021/12/26 13:23:29;;;;;;;3.30;2.67;;;13.60;96.70;;;;;;5109173;27;20047;-75
2021/12/26 13:26:01;;;;;;;2.67;2.33;;;13.60;96.70;;;;;;5092778;27;20047;-76